Scotts Valley, California
Current Conditions -  °F | °C
As of 11:53 AM on Monday 26 Jan 2015 (Local Time) from KWVI Reporting Station
Clear Clear  
Wind Chill: 68°   Ceiling: Unl
Heat Index: 68°   Visibility: 10mi
Dew Point: 45°   Wind: 8mph
Humidity: 43%   Direction: 160°SSE
Pressure: 30"   Gusts: NA
Location:  37.05°N, 122.01°W
Report Text: KWVI 261953Z AUTO 16007KT 10SM CLR 20/07 A3000 RMK AO2 SLP157 T02000072 $
Loading
Personal Weather Stations






























Interactive Weather Map New forecast layout! Learn more

10-Day Weather Forecast

Advertisements
Track Severe Weather on mobile